sensor_id;sensor_type;location;lat;lon;timestamp;P1;durP1;ratioP1;P2;durP2;ratioP2
74689;SDS011;63221;51.860;-2.188;2022-12-07T00:03:34;13.07;;;6.35;;
74689;SDS011;63221;51.860;-2.188;2022-12-07T00:06:00;17.30;;;6.95;;
74689;SDS011;63221;51.860;-2.188;2022-12-07T00:08:26;11.40;;;7.10;;
74689;SDS011;63221;51.860;-2.188;2022-12-07T00:10:52;10.27;;;6.85;;
74689;SDS011;63221;51.860;-2.188;2022-12-07T00:13:17;14.20;;;7.53;;
74689;SDS011;63221;51.860;-2.188;2022-12-07T00:15:43;13.40;;;6.80;;
74689;SDS011;63221;51.860;-2.188;2022-12-07T00:18:09;13.25;;;6.90;;
74689;SDS011;63221;51.860;-2.188;2022-12-07T00:20:34;14.97;;;7.10;;
74689;SDS011;63221;51.860;-2.188;2022-12-07T00:22:59;10.60;;;6.43;;
74689;SDS011;63221;51.860;-2.188;2022-12-07T00:25:25;16.20;;;7.43;;
74689;SDS011;63221;51.860;-2.188;2022-12-07T00:27:54;18.15;;;8.52;;
74689;SDS011;63221;51.860;-2.188;2022-12-07T00:30:22;20.38;;;9.20;;
74689;SDS011;63221;51.860;-2.188;2022-12-07T00:32:48;24.45;;;9.00;;
74689;SDS011;63221;51.860;-2.188;2022-12-07T00:35:14;18.57;;;7.73;;
74689;SDS011;63221;51.860;-2.188;2022-12-07T00:37:39;20.35;;;8.30;;
74689;SDS011;63221;51.860;-2.188;2022-12-07T00:40:05;18.27;;;7.57;;
74689;SDS011;63221;51.860;-2.188;2022-12-07T00:42:31;16.73;;;7.93;;
74689;SDS011;63221;51.860;-2.188;2022-12-07T00:44:56;18.67;;;9.13;;
74689;SDS011;63221;51.860;-2.188;2022-12-07T00:47:22;16.50;;;8.47;;
74689;SDS011;63221;51.860;-2.188;2022-12-07T00:49:47;16.47;;;9.40;;
74689;SDS011;63221;51.860;-2.188;2022-12-07T00:52:13;18.92;;;8.85;;
74689;SDS011;63221;51.860;-2.188;2022-12-07T00:54:39;23.90;;;9.80;;
74689;SDS011;63221;51.860;-2.188;2022-12-07T00:57:04;19.75;;;8.93;;
74689;SDS011;63221;51.860;-2.188;2022-12-07T00:59:30;17.57;;;9.07;;
74689;SDS011;63221;51.860;-2.188;2022-12-07T01:01:55;16.40;;;8.63;;
74689;SDS011;63221;51.860;-2.188;2022-12-07T01:04:21;16.20;;;8.13;;
74689;SDS011;63221;51.860;-2.188;2022-12-07T01:06:46;17.17;;;7.50;;
74689;SDS011;63221;51.860;-2.188;2022-12-07T01:09:11;16.73;;;8.90;;
74689;SDS011;63221;51.860;-2.188;2022-12-07T01:11:37;15.27;;;7.10;;
74689;SDS011;63221;51.860;-2.188;2022-12-07T01:14:02;14.90;;;7.70;;
74689;SDS011;63221;51.860;-2.188;2022-12-07T01:16:28;14.07;;;7.77;;
74689;SDS011;63221;51.860;-2.188;2022-12-07T01:18:55;13.30;;;8.35;;
74689;SDS011;63221;51.860;-2.188;2022-12-07T01:21:26;11.30;;;7.95;;
74689;SDS011;63221;51.860;-2.188;2022-12-07T01:23:59;13.88;;;7.43;;
74689;SDS011;63221;51.860;-2.188;2022-12-07T01:26:25;15.90;;;8.07;;
74689;SDS011;63221;51.860;-2.188;2022-12-07T01:28:51;12.90;;;7.33;;
74689;SDS011;63221;51.860;-2.188;2022-12-07T01:31:17;14.73;;;8.18;;
74689;SDS011;63221;51.860;-2.188;2022-12-07T01:33:45;10.13;;;6.72;;
74689;SDS011;63221;51.860;-2.188;2022-12-07T01:36:16;14.38;;;8.05;;
74689;SDS011;63221;51.860;-2.188;2022-12-07T01:38:44;13.77;;;8.15;;
74689;SDS011;63221;51.860;-2.188;2022-12-07T01:41:11;12.27;;;7.47;;
74689;SDS011;63221;51.860;-2.188;2022-12-07T01:44:06;17.52;;;7.93;;
74689;SDS011;63221;51.860;-2.188;2022-12-07T01:46:39;13.13;;;7.50;;
74689;SDS011;63221;51.860;-2.188;2022-12-07T01:49:10;16.67;;;7.38;;
74689;SDS011;63221;51.860;-2.188;2022-12-07T01:51:40;11.55;;;7.43;;
74689;SDS011;63221;51.860;-2.188;2022-12-07T01:54:06;12.13;;;7.30;;
74689;SDS011;63221;51.860;-2.188;2022-12-07T01:56:32;14.05;;;7.25;;
74689;SDS011;63221;51.860;-2.188;2022-12-07T01:58:58;13.00;;;6.53;;
74689;SDS011;63221;51.860;-2.188;2022-12-07T02:01:23;16.13;;;6.03;;
74689;SDS011;63221;51.860;-2.188;2022-12-07T02:03:49;10.70;;;6.27;;
74689;SDS011;63221;51.860;-2.188;2022-12-07T02:06:16;11.57;;;6.60;;
74689;SDS011;63221;51.860;-2.188;2022-12-07T02:08:44;8.73;;;6.50;;
74689;SDS011;63221;51.860;-2.188;2022-12-07T02:11:10;14.20;;;7.70;;
74689;SDS011;63221;51.860;-2.188;2022-12-07T02:13:36;10.90;;;7.07;;
74689;SDS011;63221;51.860;-2.188;2022-12-07T02:27:06;16.47;;;7.30;;
74689;SDS011;63221;51.860;-2.188;2022-12-07T02:29:35;13.27;;;7.07;;
74689;SDS011;63221;51.860;-2.188;2022-12-07T02:32:07;11.32;;;6.10;;
74689;SDS011;63221;51.860;-2.188;2022-12-07T02:40:20;12.43;;;5.97;;
74689;SDS011;63221;51.860;-2.188;2022-12-07T02:42:50;10.25;;;6.50;;
74689;SDS011;63221;51.860;-2.188;2022-12-07T02:45:38;11.50;;;7.18;;
74689;SDS011;63221;51.860;-2.188;2022-12-07T02:48:04;10.63;;;6.55;;
74689;SDS011;63221;51.860;-2.188;2022-12-07T02:50:31;12.35;;;6.93;;
74689;SDS011;63221;51.860;-2.188;2022-12-07T02:52:56;14.83;;;5.90;;
74689;SDS011;63221;51.860;-2.188;2022-12-07T02:55:23;10.57;;;6.20;;
74689;SDS011;63221;51.860;-2.188;2022-12-07T03:00:27;11.57;;;6.50;;
74689;SDS011;63221;51.860;-2.188;2022-12-07T03:03:09;10.93;;;5.30;;
74689;SDS011;63221;51.860;-2.188;2022-12-07T03:05:54;13.75;;;5.97;;
74689;SDS011;63221;51.860;-2.188;2022-12-07T03:11:16;9.07;;;5.28;;
74689;SDS011;63221;51.860;-2.188;2022-12-07T03:14:06;9.35;;;4.85;;
74689;SDS011;63221;51.860;-2.188;2022-12-07T03:16:37;12.70;;;6.53;;
74689;SDS011;63221;51.860;-2.188;2022-12-07T03:19:07;10.27;;;5.10;;
74689;SDS011;63221;51.860;-2.188;2022-12-07T03:21:44;8.82;;;4.00;;
74689;SDS011;63221;51.860;-2.188;2022-12-07T03:24:14;12.63;;;5.22;;
74689;SDS011;63221;51.860;-2.188;2022-12-07T03:26:41;11.85;;;5.65;;
74689;SDS011;63221;51.860;-2.188;2022-12-07T03:29:24;7.13;;;4.80;;
74689;SDS011;63221;51.860;-2.188;2022-12-07T03:31:54;9.50;;;4.95;;
74689;SDS011;63221;51.860;-2.188;2022-12-07T03:34:34;11.10;;;4.75;;
74689;SDS011;63221;51.860;-2.188;2022-12-07T03:37:26;7.68;;;4.68;;
74689;SDS011;63221;51.860;-2.188;2022-12-07T03:42:23;10.57;;;5.27;;
74689;SDS011;63221;51.860;-2.188;2022-12-07T03:44:48;8.10;;;5.20;;
74689;SDS011;63221;51.860;-2.188;2022-12-07T03:49:54;11.68;;;6.32;;
74689;SDS011;63221;51.860;-2.188;2022-12-07T03:55:10;25.30;;;11.13;;
74689;SDS011;63221;51.860;-2.188;2022-12-07T03:57:44;15.53;;;7.97;;
74689;SDS011;63221;51.860;-2.188;2022-12-07T04:00:11;15.02;;;7.47;;
74689;SDS011;63221;51.860;-2.188;2022-12-07T04:02:38;12.52;;;4.93;;
74689;SDS011;63221;51.860;-2.188;2022-12-07T04:05:04;9.30;;;5.07;;
74689;SDS011;63221;51.860;-2.188;2022-12-07T04:07:30;9.43;;;5.28;;
74689;SDS011;63221;51.860;-2.188;2022-12-07T04:09:55;7.63;;;4.47;;
74689;SDS011;63221;51.860;-2.188;2022-12-07T04:12:21;11.17;;;5.30;;
74689;SDS011;63221;51.860;-2.188;2022-12-07T04:14:47;9.87;;;4.67;;
74689;SDS011;63221;51.860;-2.188;2022-12-07T04:17:12;6.93;;;5.13;;
74689;SDS011;63221;51.860;-2.188;2022-12-07T04:19:37;8.80;;;4.60;;
74689;SDS011;63221;51.860;-2.188;2022-12-07T04:22:03;9.40;;;5.13;;
74689;SDS011;63221;51.860;-2.188;2022-12-07T04:24:29;9.25;;;4.57;;
74689;SDS011;63221;51.860;-2.188;2022-12-07T04:26:55;10.90;;;5.53;;
74689;SDS011;63221;51.860;-2.188;2022-12-07T04:29:20;9.80;;;5.87;;
74689;SDS011;63221;51.860;-2.188;2022-12-07T04:31:46;13.03;;;6.00;;
74689;SDS011;63221;51.860;-2.188;2022-12-07T04:34:12;12.65;;;4.97;;
74689;SDS011;63221;51.860;-2.188;2022-12-07T04:36:40;6.90;;;3.78;;
74689;SDS011;63221;51.860;-2.188;2022-12-07T04:39:07;7.97;;;4.60;;
74689;SDS011;63221;51.860;-2.188;2022-12-07T04:41:33;10.48;;;4.70;;
74689;SDS011;63221;51.860;-2.188;2022-12-07T04:44:03;7.03;;;4.55;;
74689;SDS011;63221;51.860;-2.188;2022-12-07T04:46:32;10.77;;;4.90;;
74689;SDS011;63221;51.860;-2.188;2022-12-07T04:48:58;13.48;;;6.10;;
74689;SDS011;63221;51.860;-2.188;2022-12-07T04:51:27;8.90;;;4.73;;
74689;SDS011;63221;51.860;-2.188;2022-12-07T04:53:54;7.45;;;3.65;;
74689;SDS011;63221;51.860;-2.188;2022-12-07T04:56:20;7.53;;;5.07;;
74689;SDS011;63221;51.860;-2.188;2022-12-07T04:58:47;10.07;;;4.32;;
74689;SDS011;63221;51.860;-2.188;2022-12-07T05:01:13;10.30;;;3.97;;
74689;SDS011;63221;51.860;-2.188;2022-12-07T05:03:40;9.85;;;5.00;;
74689;SDS011;63221;51.860;-2.188;2022-12-07T05:06:05;10.23;;;5.60;;
74689;SDS011;63221;51.860;-2.188;2022-12-07T05:08:32;9.10;;;5.13;;
74689;SDS011;63221;51.860;-2.188;2022-12-07T05:10:58;8.52;;;4.85;;
74689;SDS011;63221;51.860;-2.188;2022-12-07T05:13:24;10.80;;;5.17;;
74689;SDS011;63221;51.860;-2.188;2022-12-07T05:15:49;8.77;;;4.73;;
74689;SDS011;63221;51.860;-2.188;2022-12-07T05:18:15;11.50;;;4.87;;
74689;SDS011;63221;51.860;-2.188;2022-12-07T05:20:40;11.55;;;5.00;;
74689;SDS011;63221;51.860;-2.188;2022-12-07T05:23:06;10.33;;;5.23;;
74689;SDS011;63221;51.860;-2.188;2022-12-07T05:25:32;11.55;;;5.28;;
74689;SDS011;63221;51.860;-2.188;2022-12-07T05:27:57;12.30;;;4.53;;
74689;SDS011;63221;51.860;-2.188;2022-12-07T05:30:23;8.57;;;5.17;;
74689;SDS011;63221;51.860;-2.188;2022-12-07T05:32:49;8.48;;;5.00;;
74689;SDS011;63221;51.860;-2.188;2022-12-07T05:35:15;10.47;;;5.00;;
74689;SDS011;63221;51.860;-2.188;2022-12-07T05:37:41;6.33;;;4.70;;
74689;SDS011;63221;51.860;-2.188;2022-12-07T05:40:06;8.63;;;5.20;;
74689;SDS011;63221;51.860;-2.188;2022-12-07T05:42:32;10.70;;;4.73;;
74689;SDS011;63221;51.860;-2.188;2022-12-07T05:44:58;11.20;;;4.90;;
74689;SDS011;63221;51.860;-2.188;2022-12-07T05:47:23;11.97;;;5.67;;
74689;SDS011;63221;51.860;-2.188;2022-12-07T05:49:48;10.10;;;4.87;;
74689;SDS011;63221;51.860;-2.188;2022-12-07T05:52:14;8.00;;;4.50;;
74689;SDS011;63221;51.860;-2.188;2022-12-07T05:54:39;8.55;;;5.80;;
74689;SDS011;63221;51.860;-2.188;2022-12-07T05:57:05;8.33;;;5.07;;
74689;SDS011;63221;51.860;-2.188;2022-12-07T05:59:30;10.30;;;5.23;;
74689;SDS011;63221;51.860;-2.188;2022-12-07T06:02:00;7.57;;;4.20;;
74689;SDS011;63221;51.860;-2.188;2022-12-07T06:04:28;13.18;;;5.80;;
74689;SDS011;63221;51.860;-2.188;2022-12-07T06:06:54;9.00;;;5.82;;
74689;SDS011;63221;51.860;-2.188;2022-12-07T06:09:20;10.00;;;5.53;;
74689;SDS011;63221;51.860;-2.188;2022-12-07T06:11:47;9.18;;;5.80;;
74689;SDS011;63221;51.860;-2.188;2022-12-07T06:14:31;8.65;;;5.07;;
74689;SDS011;63221;51.860;-2.188;2022-12-07T06:16:57;9.77;;;5.87;;
74689;SDS011;63221;51.860;-2.188;2022-12-07T06:19:23;9.80;;;5.28;;
74689;SDS011;63221;51.860;-2.188;2022-12-07T06:21:49;12.27;;;6.23;;
74689;SDS011;63221;51.860;-2.188;2022-12-07T06:24:14;13.63;;;6.10;;
74689;SDS011;63221;51.860;-2.188;2022-12-07T06:26:40;13.75;;;7.07;;
74689;SDS011;63221;51.860;-2.188;2022-12-07T06:29:06;12.15;;;5.38;;
74689;SDS011;63221;51.860;-2.188;2022-12-07T06:31:32;13.38;;;5.75;;
74689;SDS011;63221;51.860;-2.188;2022-12-07T06:34:01;10.30;;;6.20;;
74689;SDS011;63221;51.860;-2.188;2022-12-07T06:36:28;10.60;;;6.10;;
74689;SDS011;63221;51.860;-2.188;2022-12-07T06:38:53;13.23;;;6.43;;
74689;SDS011;63221;51.860;-2.188;2022-12-07T06:41:19;11.82;;;5.82;;
74689;SDS011;63221;51.860;-2.188;2022-12-07T06:43:45;11.10;;;6.17;;
74689;SDS011;63221;51.860;-2.188;2022-12-07T06:46:10;12.50;;;6.70;;
74689;SDS011;63221;51.860;-2.188;2022-12-07T06:48:35;12.00;;;6.30;;
74689;SDS011;63221;51.860;-2.188;2022-12-07T06:51:01;10.75;;;6.15;;
74689;SDS011;63221;51.860;-2.188;2022-12-07T06:53:26;9.77;;;5.43;;
74689;SDS011;63221;51.860;-2.188;2022-12-07T06:55:52;11.17;;;5.90;;
74689;SDS011;63221;51.860;-2.188;2022-12-07T06:58:17;12.73;;;5.93;;
74689;SDS011;63221;51.860;-2.188;2022-12-07T07:00:43;11.02;;;5.60;;
74689;SDS011;63221;51.860;-2.188;2022-12-07T07:03:09;12.15;;;6.35;;
74689;SDS011;63221;51.860;-2.188;2022-12-07T07:05:34;13.37;;;6.47;;
74689;SDS011;63221;51.860;-2.188;2022-12-07T07:08:00;13.67;;;6.77;;
74689;SDS011;63221;51.860;-2.188;2022-12-07T07:10:25;17.47;;;7.77;;
74689;SDS011;63221;51.860;-2.188;2022-12-07T07:12:51;26.50;;;8.93;;
74689;SDS011;63221;51.860;-2.188;2022-12-07T07:15:16;20.73;;;6.83;;
74689;SDS011;63221;51.860;-2.188;2022-12-07T07:17:42;16.03;;;7.43;;
74689;SDS011;63221;51.860;-2.188;2022-12-07T07:20:08;14.02;;;7.45;;
74689;SDS011;63221;51.860;-2.188;2022-12-07T07:22:34;14.45;;;7.45;;
74689;SDS011;63221;51.860;-2.188;2022-12-07T07:24:59;15.27;;;6.70;;
74689;SDS011;63221;51.860;-2.188;2022-12-07T07:27:24;15.23;;;6.90;;
74689;SDS011;63221;51.860;-2.188;2022-12-07T07:29:50;16.47;;;7.27;;
74689;SDS011;63221;51.860;-2.188;2022-12-07T07:32:15;15.43;;;6.33;;
74689;SDS011;63221;51.860;-2.188;2022-12-07T07:34:41;15.48;;;6.78;;
74689;SDS011;63221;51.860;-2.188;2022-12-07T07:37:06;17.73;;;7.30;;
74689;SDS011;63221;51.860;-2.188;2022-12-07T07:39:31;19.50;;;7.90;;
74689;SDS011;63221;51.860;-2.188;2022-12-07T07:41:57;15.80;;;7.67;;
74689;SDS011;63221;51.860;-2.188;2022-12-07T07:44:22;17.75;;;6.32;;
74689;SDS011;63221;51.860;-2.188;2022-12-07T07:46:48;22.83;;;8.10;;
74689;SDS011;63221;51.860;-2.188;2022-12-07T07:49:13;12.03;;;6.80;;
74689;SDS011;63221;51.860;-2.188;2022-12-07T07:51:38;18.10;;;7.47;;
74689;SDS011;63221;51.860;-2.188;2022-12-07T07:54:04;17.57;;;7.70;;
74689;SDS011;63221;51.860;-2.188;2022-12-07T07:56:30;18.98;;;7.95;;
74689;SDS011;63221;51.860;-2.188;2022-12-07T07:58:55;13.02;;;7.10;;
74689;SDS011;63221;51.860;-2.188;2022-12-07T08:01:21;17.70;;;7.53;;
74689;SDS011;63221;51.860;-2.188;2022-12-07T08:03:46;20.10;;;8.43;;
74689;SDS011;63221;51.860;-2.188;2022-12-07T08:06:12;17.65;;;8.88;;
74689;SDS011;63221;51.860;-2.188;2022-12-07T08:08:37;19.20;;;8.63;;
74689;SDS011;63221;51.860;-2.188;2022-12-07T08:11:06;16.00;;;6.90;;
74689;SDS011;63221;51.860;-2.188;2022-12-07T08:13:32;16.70;;;7.53;;
74689;SDS011;63221;51.860;-2.188;2022-12-07T08:15:58;18.17;;;8.33;;
74689;SDS011;63221;51.860;-2.188;2022-12-07T08:18:23;14.30;;;7.20;;
74689;SDS011;63221;51.860;-2.188;2022-12-07T08:20:48;19.50;;;8.60;;
74689;SDS011;63221;51.860;-2.188;2022-12-07T08:23:14;20.27;;;8.00;;
74689;SDS011;63221;51.860;-2.188;2022-12-07T08:25:39;16.27;;;8.87;;
74689;SDS011;63221;51.860;-2.188;2022-12-07T08:28:05;16.37;;;8.47;;
74689;SDS011;63221;51.860;-2.188;2022-12-07T08:30:31;15.48;;;7.53;;
74689;SDS011;63221;51.860;-2.188;2022-12-07T08:32:57;11.07;;;7.13;;
74689;SDS011;63221;51.860;-2.188;2022-12-07T08:35:22;16.80;;;8.45;;
74689;SDS011;63221;51.860;-2.188;2022-12-07T08:37:48;15.17;;;8.33;;
74689;SDS011;63221;51.860;-2.188;2022-12-07T08:40:14;15.65;;;8.05;;
74689;SDS011;63221;51.860;-2.188;2022-12-07T08:42:43;17.27;;;8.60;;
74689;SDS011;63221;51.860;-2.188;2022-12-07T08:45:13;18.00;;;8.70;;
74689;SDS011;63221;51.860;-2.188;2022-12-07T08:50:37;14.57;;;7.18;;
74689;SDS011;63221;51.860;-2.188;2022-12-07T08:53:03;14.87;;;9.00;;
74689;SDS011;63221;51.860;-2.188;2022-12-07T08:55:29;15.67;;;7.33;;
74689;SDS011;63221;51.860;-2.188;2022-12-07T08:57:55;17.30;;;8.38;;
74689;SDS011;63221;51.860;-2.188;2022-12-07T09:00:22;16.67;;;8.68;;
74689;SDS011;63221;51.860;-2.188;2022-12-07T09:02:48;19.37;;;8.97;;
74689;SDS011;63221;51.860;-2.188;2022-12-07T09:05:13;16.70;;;9.03;;
74689;SDS011;63221;51.860;-2.188;2022-12-07T09:07:42;16.92;;;8.50;;
74689;SDS011;63221;51.860;-2.188;2022-12-07T09:10:08;15.30;;;8.18;;
74689;SDS011;63221;51.860;-2.188;2022-12-07T09:12:34;15.43;;;8.30;;
74689;SDS011;63221;51.860;-2.188;2022-12-07T09:14:59;20.23;;;7.68;;
74689;SDS011;63221;51.860;-2.188;2022-12-07T09:17:25;17.77;;;8.20;;
74689;SDS011;63221;51.860;-2.188;2022-12-07T09:19:51;16.85;;;7.70;;
74689;SDS011;63221;51.860;-2.188;2022-12-07T09:22:16;16.77;;;8.57;;
74689;SDS011;63221;51.860;-2.188;2022-12-07T09:24:42;14.77;;;7.67;;
74689;SDS011;63221;51.860;-2.188;2022-12-07T09:27:09;15.57;;;7.95;;
74689;SDS011;63221;51.860;-2.188;2022-12-07T09:29:35;16.27;;;8.47;;
74689;SDS011;63221;51.860;-2.188;2022-12-07T09:32:00;20.10;;;8.55;;
74689;SDS011;63221;51.860;-2.188;2022-12-07T09:34:25;22.23;;;10.27;;
74689;SDS011;63221;51.860;-2.188;2022-12-07T09:36:51;20.90;;;8.93;;
74689;SDS011;63221;51.860;-2.188;2022-12-07T09:39:17;18.80;;;9.75;;
74689;SDS011;63221;51.860;-2.188;2022-12-07T09:41:43;19.53;;;10.63;;
74689;SDS011;63221;51.860;-2.188;2022-12-07T09:44:11;21.02;;;11.50;;
74689;SDS011;63221;51.860;-2.188;2022-12-07T09:46:45;20.20;;;11.18;;
74689;SDS011;63221;51.860;-2.188;2022-12-07T09:49:21;21.13;;;11.60;;
74689;SDS011;63221;51.860;-2.188;2022-12-07T09:51:57;26.13;;;11.38;;
74689;SDS011;63221;51.860;-2.188;2022-12-07T09:54:28;20.92;;;11.05;;
74689;SDS011;63221;51.860;-2.188;2022-12-07T09:56:54;19.13;;;10.53;;
74689;SDS011;63221;51.860;-2.188;2022-12-07T09:59:19;20.88;;;10.60;;
74689;SDS011;63221;51.860;-2.188;2022-12-07T10:01:46;19.43;;;10.07;;
74689;SDS011;63221;51.860;-2.188;2022-12-07T10:06:49;17.57;;;9.30;;
74689;SDS011;63221;51.860;-2.188;2022-12-07T10:09:17;20.00;;;10.13;;
74689;SDS011;63221;51.860;-2.188;2022-12-07T10:14:29;20.95;;;10.43;;
74689;SDS011;63221;51.860;-2.188;2022-12-07T10:16:55;17.52;;;9.95;;
74689;SDS011;63221;51.860;-2.188;2022-12-07T10:19:28;17.03;;;9.63;;
74689;SDS011;63221;51.860;-2.188;2022-12-07T10:24:33;19.80;;;10.32;;
74689;SDS011;63221;51.860;-2.188;2022-12-07T10:26:58;17.50;;;8.93;;
74689;SDS011;63221;51.860;-2.188;2022-12-07T10:29:31;13.50;;;10.00;;
74689;SDS011;63221;51.860;-2.188;2022-12-07T10:34:36;16.17;;;9.05;;
74689;SDS011;63221;51.860;-2.188;2022-12-07T10:39:40;16.73;;;8.52;;
74689;SDS011;63221;51.860;-2.188;2022-12-07T10:44:46;13.68;;;7.53;;
74689;SDS011;63221;51.860;-2.188;2022-12-07T10:47:33;16.00;;;7.28;;
74689;SDS011;63221;51.860;-2.188;2022-12-07T11:06:50;14.00;;;7.30;;
74689;SDS011;63221;51.860;-2.188;2022-12-07T11:12:13;14.70;;;6.53;;
74689;SDS011;63221;51.860;-2.188;2022-12-07T11:17:49;13.27;;;7.45;;
74689;SDS011;63221;51.860;-2.188;2022-12-07T11:23:18;11.97;;;6.23;;
74689;SDS011;63221;51.860;-2.188;2022-12-07T11:28:33;9.15;;;5.80;;
74689;SDS011;63221;51.860;-2.188;2022-12-07T11:31:28;9.57;;;5.55;;
74689;SDS011;63221;51.860;-2.188;2022-12-07T11:34:09;9.25;;;4.90;;
74689;SDS011;63221;51.860;-2.188;2022-12-07T11:36:41;7.13;;;4.27;;
74689;SDS011;63221;51.860;-2.188;2022-12-07T11:42:01;8.07;;;3.85;;
74689;SDS011;63221;51.860;-2.188;2022-12-07T11:49:53;9.90;;;4.77;;
74689;SDS011;63221;51.860;-2.188;2022-12-07T11:52:22;13.18;;;5.35;;
74689;SDS011;63221;51.860;-2.188;2022-12-07T11:54:52;10.52;;;4.53;;
74689;SDS011;63221;51.860;-2.188;2022-12-07T11:57:27;11.05;;;5.15;;
74689;SDS011;63221;51.860;-2.188;2022-12-07T11:59:59;10.50;;;5.47;;
74689;SDS011;63221;51.860;-2.188;2022-12-07T12:02:32;13.73;;;5.27;;
74689;SDS011;63221;51.860;-2.188;2022-12-07T12:07:30;11.25;;;4.68;;
74689;SDS011;63221;51.860;-2.188;2022-12-07T12:10:06;7.68;;;4.43;;
74689;SDS011;63221;51.860;-2.188;2022-12-07T12:12:56;14.02;;;5.25;;
74689;SDS011;63221;51.860;-2.188;2022-12-07T12:20:56;8.98;;;3.95;;
74689;SDS011;63221;51.860;-2.188;2022-12-07T12:23:45;7.53;;;4.47;;
74689;SDS011;63221;51.860;-2.188;2022-12-07T12:26:29;6.13;;;3.85;;
74689;SDS011;63221;51.860;-2.188;2022-12-07T12:33:52;7.60;;;3.00;;
74689;SDS011;63221;51.860;-2.188;2022-12-07T12:36:24;7.10;;;3.72;;
74689;SDS011;63221;51.860;-2.188;2022-12-07T12:47:01;9.25;;;2.88;;
74689;SDS011;63221;51.860;-2.188;2022-12-07T12:51:53;12.33;;;3.63;;
74689;SDS011;63221;51.860;-2.188;2022-12-07T13:15:33;4.30;;;2.80;;
74689;SDS011;63221;51.860;-2.188;2022-12-07T13:29:14;6.80;;;3.35;;
74689;SDS011;63221;51.860;-2.188;2022-12-07T13:31:45;8.00;;;3.30;;
74689;SDS011;63221;51.860;-2.188;2022-12-07T13:34:30;10.98;;;3.50;;
74689;SDS011;63221;51.860;-2.188;2022-12-07T13:37:01;8.95;;;3.42;;
74689;SDS011;63221;51.860;-2.188;2022-12-07T13:39:34;5.75;;;2.85;;
74689;SDS011;63221;51.860;-2.188;2022-12-07T13:42:06;7.00;;;3.00;;
74689;SDS011;63221;51.860;-2.188;2022-12-07T13:44:34;9.43;;;2.70;;
74689;SDS011;63221;51.860;-2.188;2022-12-07T13:47:18;7.65;;;2.80;;
74689;SDS011;63221;51.860;-2.188;2022-12-07T13:52:18;7.75;;;2.67;;
74689;SDS011;63221;51.860;-2.188;2022-12-07T13:54:49;4.18;;;2.83;;
74689;SDS011;63221;51.860;-2.188;2022-12-07T13:57:36;8.47;;;3.00;;
74689;SDS011;63221;51.860;-2.188;2022-12-07T14:00:06;8.77;;;3.22;;
74689;SDS011;63221;51.860;-2.188;2022-12-07T14:02:53;8.23;;;2.93;;
74689;SDS011;63221;51.860;-2.188;2022-12-07T14:05:43;7.50;;;3.05;;
74689;SDS011;63221;51.860;-2.188;2022-12-07T14:10:41;4.53;;;2.47;;
74689;SDS011;63221;51.860;-2.188;2022-12-07T14:13:24;7.83;;;2.47;;
74689;SDS011;63221;51.860;-2.188;2022-12-07T14:16:03;6.53;;;2.60;;
74689;SDS011;63221;51.860;-2.188;2022-12-07T14:18:50;9.95;;;4.00;;
74689;SDS011;63221;51.860;-2.188;2022-12-07T14:21:17;4.40;;;2.85;;
74689;SDS011;63221;51.860;-2.188;2022-12-07T14:26:35;6.60;;;3.65;;
74689;SDS011;63221;51.860;-2.188;2022-12-07T14:31:55;6.85;;;3.13;;
74689;SDS011;63221;51.860;-2.188;2022-12-07T14:34:21;5.82;;;2.92;;
74689;SDS011;63221;51.860;-2.188;2022-12-07T14:36:47;6.63;;;4.50;;
74689;SDS011;63221;51.860;-2.188;2022-12-07T14:39:12;6.10;;;3.43;;
74689;SDS011;63221;51.860;-2.188;2022-12-07T14:41:38;5.90;;;3.23;;
74689;SDS011;63221;51.860;-2.188;2022-12-07T14:44:15;12.95;;;3.67;;
74689;SDS011;63221;51.860;-2.188;2022-12-07T14:46:41;6.15;;;3.70;;
74689;SDS011;63221;51.860;-2.188;2022-12-07T14:49:06;5.03;;;2.30;;
74689;SDS011;63221;51.860;-2.188;2022-12-07T14:51:32;7.70;;;3.00;;
74689;SDS011;63221;51.860;-2.188;2022-12-07T14:53:58;6.13;;;2.80;;
74689;SDS011;63221;51.860;-2.188;2022-12-07T14:56:23;4.13;;;3.17;;
74689;SDS011;63221;51.860;-2.188;2022-12-07T14:58:49;8.02;;;2.38;;
74689;SDS011;63221;51.860;-2.188;2022-12-07T15:01:15;4.50;;;2.23;;
74689;SDS011;63221;51.860;-2.188;2022-12-07T15:03:40;7.90;;;2.60;;
74689;SDS011;63221;51.860;-2.188;2022-12-07T15:06:06;4.57;;;1.77;;
74689;SDS011;63221;51.860;-2.188;2022-12-07T15:08:31;5.67;;;2.07;;
74689;SDS011;63221;51.860;-2.188;2022-12-07T15:10:57;3.47;;;2.38;;
74689;SDS011;63221;51.860;-2.188;2022-12-07T15:13:22;4.80;;;2.53;;
74689;SDS011;63221;51.860;-2.188;2022-12-07T15:16:10;4.43;;;1.67;;
74689;SDS011;63221;51.860;-2.188;2022-12-07T15:18:36;6.90;;;3.33;;
74689;SDS011;63221;51.860;-2.188;2022-12-07T15:21:02;5.65;;;2.17;;
74689;SDS011;63221;51.860;-2.188;2022-12-07T15:23:27;8.70;;;2.50;;
74689;SDS011;63221;51.860;-2.188;2022-12-07T15:25:52;4.53;;;2.33;;
74689;SDS011;63221;51.860;-2.188;2022-12-07T15:28:18;5.47;;;2.10;;
74689;SDS011;63221;51.860;-2.188;2022-12-07T15:30:44;5.72;;;2.15;;
74689;SDS011;63221;51.860;-2.188;2022-12-07T15:33:10;4.83;;;2.00;;
74689;SDS011;63221;51.860;-2.188;2022-12-07T15:35:39;5.20;;;2.15;;
74689;SDS011;63221;51.860;-2.188;2022-12-07T15:38:08;4.47;;;1.95;;
74689;SDS011;63221;51.860;-2.188;2022-12-07T15:40:34;6.00;;;2.20;;
74689;SDS011;63221;51.860;-2.188;2022-12-07T15:43:00;5.70;;;2.10;;
74689;SDS011;63221;51.860;-2.188;2022-12-07T15:45:26;5.18;;;2.10;;
74689;SDS011;63221;51.860;-2.188;2022-12-07T15:47:51;5.37;;;2.10;;
74689;SDS011;63221;51.860;-2.188;2022-12-07T15:50:16;5.70;;;2.33;;
74689;SDS011;63221;51.860;-2.188;2022-12-07T15:52:42;8.13;;;2.30;;
74689;SDS011;63221;51.860;-2.188;2022-12-07T15:55:08;6.65;;;2.00;;
74689;SDS011;63221;51.860;-2.188;2022-12-07T15:57:35;3.92;;;1.58;;
74689;SDS011;63221;51.860;-2.188;2022-12-07T16:00:02;5.68;;;2.55;;
74689;SDS011;63221;51.860;-2.188;2022-12-07T16:02:29;6.67;;;2.63;;
74689;SDS011;63221;51.860;-2.188;2022-12-07T16:04:54;10.27;;;3.83;;
74689;SDS011;63221;51.860;-2.188;2022-12-07T16:07:19;7.97;;;4.03;;
74689;SDS011;63221;51.860;-2.188;2022-12-07T16:09:45;8.63;;;4.00;;
74689;SDS011;63221;51.860;-2.188;2022-12-07T16:12:11;9.27;;;3.03;;
74689;SDS011;63221;51.860;-2.188;2022-12-07T16:14:38;10.45;;;3.47;;
74689;SDS011;63221;51.860;-2.188;2022-12-07T16:17:04;6.90;;;3.30;;
74689;SDS011;63221;51.860;-2.188;2022-12-07T16:19:30;10.85;;;3.65;;
74689;SDS011;63221;51.860;-2.188;2022-12-07T16:21:56;5.78;;;4.30;;
74689;SDS011;63221;51.860;-2.188;2022-12-07T16:24:22;7.63;;;4.43;;
74689;SDS011;63221;51.860;-2.188;2022-12-07T16:26:47;6.20;;;3.17;;
74689;SDS011;63221;51.860;-2.188;2022-12-07T16:29:13;5.03;;;2.80;;
74689;SDS011;63221;51.860;-2.188;2022-12-07T16:31:39;7.57;;;3.15;;
74689;SDS011;63221;51.860;-2.188;2022-12-07T16:34:05;6.73;;;3.03;;
74689;SDS011;63221;51.860;-2.188;2022-12-07T16:36:31;6.15;;;2.53;;
74689;SDS011;63221;51.860;-2.188;2022-12-07T16:38:57;5.53;;;2.97;;
74689;SDS011;63221;51.860;-2.188;2022-12-07T16:41:23;5.07;;;3.08;;
74689;SDS011;63221;51.860;-2.188;2022-12-07T16:43:49;6.70;;;2.97;;
74689;SDS011;63221;51.860;-2.188;2022-12-07T16:46:14;6.63;;;3.27;;
74689;SDS011;63221;51.860;-2.188;2022-12-07T16:48:40;5.55;;;2.42;;
74689;SDS011;63221;51.860;-2.188;2022-12-07T16:51:07;7.97;;;3.37;;
74689;SDS011;63221;51.860;-2.188;2022-12-07T16:53:34;6.68;;;3.55;;
74689;SDS011;63221;51.860;-2.188;2022-12-07T16:56:00;8.98;;;3.75;;
74689;SDS011;63221;51.860;-2.188;2022-12-07T16:58:26;5.40;;;2.60;;
74689;SDS011;63221;51.860;-2.188;2022-12-07T17:00:52;7.97;;;3.72;;
74689;SDS011;63221;51.860;-2.188;2022-12-07T17:03:17;6.20;;;3.87;;
74689;SDS011;63221;51.860;-2.188;2022-12-07T17:05:43;5.87;;;4.23;;